Time;durP1;ratioP1;P1;durP2;ratioP2;P2;SDS_P1;SDS_P2;PMS_P1;PMS_P2;Temp;Humidity;BMP_temperature;BMP_pressure;BME280_temperature;BME280_humidity;BME280_pressure;Samples;Min_cycle;Max_cycle;Signal;HPM_P1;HPM_P2
2023/04/03 00:01:54;;;;;;;;;;;11.80;99.90;;;;;;4996697;28;20002;-63
2023/04/03 00:04:20;;;;;;;;;;;11.70;99.90;;;;;;4996334;28;20022;-62
2023/04/03 00:06:45;;;;;;;;;;;11.80;99.90;;;;;;4996803;28;20006;-61
2023/04/03 00:09:11;;;;;;;;;;;11.80;99.90;;;;;;4996645;28;20444;-61
2023/04/03 00:11:37;;;;;;;;;;;11.80;99.90;;;;;;4996808;28;19982;-63
2023/04/03 00:14:02;;;;;;;;;;;11.60;99.90;;;;;;4996532;28;20500;-61
2023/04/03 00:16:28;;;;;;;;;;;11.60;99.90;;;;;;4996471;28;19978;-61
2023/04/03 00:18:54;;;;;;;;;;;11.40;99.90;;;;;;4996377;28;19985;-63
2023/04/03 00:21:19;;;;;;;;;;;11.40;99.90;;;;;;4996463;28;19982;-62
2023/04/03 00:23:45;;;;;;;;;;;11.30;99.90;;;;;;4996657;28;19982;-62
2023/04/03 00:26:10;;;;;;;;;;;11.20;99.90;;;;;;4996601;28;20006;-62
2023/04/03 00:28:36;;;;;;;;;;;11.20;99.90;;;;;;4996384;28;19989;-61
2023/04/03 00:31:02;;;;;;;;;;;11.30;99.90;;;;;;4996665;28;19983;-62
2023/04/03 00:33:27;;;;;;;;;;;11.30;99.90;;;;;;4995987;28;20073;-62
2023/04/03 00:35:53;;;;;;;;;;;11.40;99.90;;;;;;4996232;28;19979;-62
2023/04/03 00:38:18;;;;;;;;;;;11.50;99.90;;;;;;4996313;28;19979;-63
2023/04/03 00:40:45;;;;;;;;;;;11.60;99.90;;;;;;4996120;28;19978;-62
2023/04/03 00:43:15;;;;;;;;;;;11.50;99.90;;;;;;4996142;28;20049;-60
2023/04/03 00:45:42;;;;;;;;;;;11.40;99.90;;;;;;4996010;28;20002;-62
2023/04/03 00:48:12;;;;;;;;;;;11.30;99.90;;;;;;4995698;28;19983;-62
2023/04/03 00:50:39;;;;;;;;;;;11.30;99.90;;;;;;4995968;28;19978;-61
2023/04/03 00:53:06;;;;;;;;;;;11.30;99.90;;;;;;4996195;28;20065;-62
2023/04/03 00:55:32;;;;;;;;;;;11.30;99.90;;;;;;4995803;28;20472;-62
2023/04/03 00:57:59;;;;;;;;;;;11.20;99.90;;;;;;4996408;28;20430;-60
2023/04/03 01:00:24;;;;;;;;;;;11.20;99.90;;;;;;4995653;28;20074;-60
2023/04/03 01:02:50;;;;;;;;;;;11.20;99.90;;;;;;4995639;28;20353;-62
2023/04/03 01:05:17;;;;;;;;;;;11.20;99.90;;;;;;4995602;28;20384;-63
2023/04/03 01:07:43;;;;;;;;;;;11.20;99.90;;;;;;4995121;28;20014;-62
2023/04/03 01:10:11;;;;;;;;;;;11.30;99.90;;;;;;4995270;28;19979;-61
2023/04/03 01:12:40;;;;;;;;;;;11.30;99.90;;;;;;4995566;28;20051;-62
2023/04/03 01:15:06;;;;;;;;;;;11.30;99.90;;;;;;4995308;28;20005;-62
2023/04/03 01:17:32;;;;;;;;;;;11.20;99.90;;;;;;4995346;28;20069;-63
2023/04/03 01:20:06;;;;;;;;;;;10.90;99.90;;;;;;4995311;28;20429;-61
2023/04/03 01:22:39;;;;;;;;;;;10.70;99.90;;;;;;4995434;28;19985;-62
2023/04/03 01:25:05;;;;;;;;;;;10.70;99.90;;;;;;4995211;28;20002;-62
2023/04/03 01:27:30;;;;;;;;;;;10.70;99.90;;;;;;4995323;28;19978;-62
2023/04/03 01:29:56;;;;;;;;;;;10.50;99.90;;;;;;4994953;28;20041;-63
2023/04/03 01:32:22;;;;;;;;;;;10.50;99.90;;;;;;4995077;28;19986;-62
2023/04/03 01:34:47;;;;;;;;;;;10.50;99.90;;;;;;4995319;28;20337;-66
2023/04/03 01:37:13;;;;;;;;;;;10.50;99.90;;;;;;4995080;28;20413;-61
2023/04/03 01:39:39;;;;;;;;;;;10.30;99.90;;;;;;4994922;28;19979;-62
2023/04/03 01:42:05;;;;;;;;;;;10.10;99.90;;;;;;4994986;28;19979;-61
2023/04/03 01:44:30;;;;;;;;;;;10.00;99.90;;;;;;4994975;28;20318;-62
2023/04/03 01:46:56;;;;;;;;;;;10.00;99.90;;;;;;4994774;28;20060;-61
2023/04/03 01:49:22;;;;;;;;;;;9.80;99.90;;;;;;4994855;28;20449;-62
2023/04/03 01:51:47;;;;;;;;;;;9.80;99.90;;;;;;4994779;28;19978;-61
2023/04/03 01:54:13;;;;;;;;;;;9.70;99.90;;;;;;4994740;28;19990;-63
2023/04/03 01:56:38;;;;;;;;;;;9.50;99.90;;;;;;4994628;28;19983;-62
2023/04/03 01:59:04;;;;;;;;;;;9.30;99.90;;;;;;4994568;28;19978;-62
2023/04/03 02:01:30;;;;;;;;;;;9.30;99.90;;;;;;4994675;28;19979;-62
2023/04/03 02:03:55;;;;;;;;;;;9.10;99.90;;;;;;4994373;28;20005;-62
2023/04/03 02:06:21;;;;;;;;;;;9.20;99.90;;;;;;4994522;28;20050;-63
2023/04/03 02:08:46;;;;;;;;;;;9.10;99.90;;;;;;4994556;28;20437;-61
2023/04/03 02:11:12;;;;;;;;;;;9.10;99.90;;;;;;4994464;28;20353;-62
2023/04/03 02:13:37;;;;;;;;;;;9.30;99.90;;;;;;4994460;28;20044;-61
2023/04/03 02:16:07;;;;;;;;;;;9.40;99.90;;;;;;4994466;28;19986;-62
2023/04/03 02:18:33;;;;;;;;;;;9.40;99.90;;;;;;4994422;28;19979;-61
2023/04/03 02:20:58;;;;;;;;;;;9.60;99.90;;;;;;4994261;28;20344;-62
2023/04/03 02:23:24;;;;;;;;;;;9.60;99.90;;;;;;4994539;28;20025;-62
2023/04/03 02:25:50;;;;;;;;;;;9.40;99.90;;;;;;4994312;28;20052;-62
2023/04/03 02:28:15;;;;;;;;;;;9.30;99.90;;;;;;4994163;28;19983;-61
2023/04/03 02:30:41;;;;;;;;;;;9.30;99.90;;;;;;4994323;28;19987;-62
2023/04/03 02:33:06;;;;;;;;;;;9.30;99.90;;;;;;4994400;28;19986;-62
2023/04/03 02:35:32;;;;;;;;;;;9.20;99.90;;;;;;4994256;28;20468;-62
2023/04/03 02:37:57;;;;;;;;;;;9.10;99.90;;;;;;4994246;28;20433;-62
2023/04/03 02:40:23;;;;;;;;;;;9.20;99.90;;;;;;4994313;28;19979;-61
2023/04/03 02:42:48;;;;;;;;;;;9.20;99.90;;;;;;4994114;28;20352;-61
2023/04/03 02:45:14;;;;;;;;;;;9.30;99.90;;;;;;4994137;28;20435;-62
2023/04/03 02:47:40;;;;;;;;;;;9.40;99.90;;;;;;4994194;28;20352;-61
2023/04/03 02:50:05;;;;;;;;;;;9.30;99.90;;;;;;4994070;28;19989;-61
2023/04/03 02:52:31;;;;;;;;;;;9.30;99.90;;;;;;4994393;28;20021;-61
2023/04/03 02:54:57;;;;;;;;;;;9.30;99.90;;;;;;4994210;28;20021;-62
2023/04/03 02:57:22;;;;;;;;;;;9.40;99.90;;;;;;4993916;28;19978;-62
2023/04/03 02:59:48;;;;;;;;;;;9.30;99.90;;;;;;4994033;28;20014;-62
2023/04/03 03:02:14;;;;;;;;;;;9.30;99.90;;;;;;4994080;28;20452;-61
2023/04/03 03:04:39;;;;;;;;;;;9.20;99.90;;;;;;4994090;28;20504;-61
2023/04/03 03:07:05;;;;;;;;;;;8.90;99.90;;;;;;4993811;28;20006;-62
2023/04/03 03:09:30;;;;;;;;;;;8.90;99.90;;;;;;4994136;28;19979;-62
2023/04/03 03:11:56;;;;;;;;;;;8.90;99.90;;;;;;4993793;28;19983;-60
2023/04/03 03:14:22;;;;;;;;;;;9.00;99.90;;;;;;4993753;28;19998;-61
2023/04/03 03:16:48;;;;;;;;;;;8.90;99.90;;;;;;4993878;28;19990;-61
2023/04/03 03:19:13;;;;;;;;;;;8.90;99.90;;;;;;4993988;28;19986;-62
2023/04/03 03:21:39;;;;;;;;;;;8.90;99.90;;;;;;4993812;28;19979;-62
2023/04/03 03:24:04;;;;;;;;;;;8.90;99.90;;;;;;4994135;28;19989;-61
2023/04/03 03:26:30;;;;;;;;;;;8.90;99.90;;;;;;4993615;28;20002;-62
2023/04/03 03:28:56;;;;;;;;;;;8.90;99.90;;;;;;4993775;28;20425;-61
2023/04/03 03:31:21;;;;;;;;;;;8.80;99.90;;;;;;4994389;28;19995;-62
2023/04/03 03:33:47;;;;;;;;;;;8.80;99.90;;;;;;4997410;28;20018;-61
2023/04/03 03:36:12;;;;;;;;;;;8.80;99.90;;;;;;4997313;28;20392;-61
2023/04/03 03:38:38;;;;;;;;;;;8.90;99.90;;;;;;4997202;28;19986;-61
2023/04/03 03:41:04;;;;;;;;;;;8.90;99.90;;;;;;4997478;28;19979;-61
2023/04/03 03:43:29;;;;;;;;;;;9.00;99.90;;;;;;4997218;28;19978;-62
2023/04/03 03:45:55;;;;;;;;;;;9.00;99.90;;;;;;4997316;28;20097;-61
2023/04/03 03:48:21;;;;;;;;;;;8.80;99.90;;;;;;4997414;28;20452;-61
2023/04/03 03:50:47;;;;;;;;;;;8.80;99.90;;;;;;4997195;28;20405;-61
2023/04/03 03:53:12;;;;;;;;;;;8.70;99.90;;;;;;4996987;28;19979;-62
2023/04/03 03:55:38;;;;;;;;;;;8.40;99.90;;;;;;4996930;28;20009;-61
2023/04/03 03:58:03;;;;;;;;;;;8.30;99.90;;;;;;4997033;28;19979;-61
2023/04/03 04:00:29;;;;;;;;;;;8.10;99.90;;;;;;4996907;28;19982;-61
2023/04/03 04:02:55;;;;;;;;;;;8.00;99.90;;;;;;4996790;28;20006;-62
2023/04/03 04:05:21;;;;;;;;;;;7.90;99.90;;;;;;4996485;28;20022;-62
2023/04/03 04:07:47;;;;;;;;;;;8.00;99.90;;;;;;4996822;28;20030;-62
2023/04/03 04:10:13;;;;;;;;;;;8.10;99.90;;;;;;4996482;28;20448;-62
2023/04/03 04:12:39;;;;;;;;;;;8.00;99.90;;;;;;4996575;28;19983;-62
2023/04/03 04:15:04;;;;;;;;;;;8.00;99.90;;;;;;4996616;28;20074;-62
2023/04/03 04:17:30;;;;;;;;;;;7.90;99.90;;;;;;4996784;28;19983;-62
2023/04/03 04:19:56;;;;;;;;;;;7.90;99.90;;;;;;4996663;28;19982;-61
2023/04/03 04:22:21;;;;;;;;;;;7.70;99.90;;;;;;4996597;28;20461;-62
2023/04/03 04:24:47;;;;;;;;;;;7.70;99.90;;;;;;4996139;28;19978;-62
2023/04/03 04:27:12;;;;;;;;;;;7.70;99.90;;;;;;4996371;28;19982;-62
2023/04/03 04:29:38;;;;;;;;;;;7.80;99.90;;;;;;4996401;28;19979;-61
2023/04/03 04:32:03;;;;;;;;;;;7.80;99.90;;;;;;4996632;28;19989;-61
2023/04/03 04:34:30;;;;;;;;;;;7.80;99.90;;;;;;4996218;28;20532;-60
2023/04/03 04:36:56;;;;;;;;;;;7.90;99.90;;;;;;4996491;28;19983;-62
2023/04/03 04:39:21;;;;;;;;;;;7.80;99.90;;;;;;4996222;28;19983;-62
2023/04/03 04:41:47;;;;;;;;;;;7.70;99.90;;;;;;4995159;28;19987;-61
2023/04/03 04:44:12;;;;;;;;;;;7.70;99.90;;;;;;4994940;28;19979;-62
2023/04/03 04:46:38;;;;;;;;;;;7.70;99.90;;;;;;4995966;28;20003;-61
2023/04/03 04:49:03;;;;;;;;;;;7.70;99.90;;;;;;4995897;28;20090;-62
2023/04/03 04:51:29;;;;;;;;;;;7.70;99.90;;;;;;4996025;28;19978;-62
2023/04/03 04:53:55;;;;;;;;;;;7.80;99.90;;;;;;4995671;28;19979;-62
2023/04/03 04:56:20;;;;;;;;;;;7.80;99.90;;;;;;4995885;28;19986;-62
2023/04/03 04:58:46;;;;;;;;;;;7.70;99.90;;;;;;4995765;28;20489;-62
2023/04/03 05:01:11;;;;;;;;;;;7.70;99.90;;;;;;4996010;28;20025;-62
2023/04/03 05:03:37;;;;;;;;;;;7.70;99.90;;;;;;4995696;28;20392;-61
2023/04/03 05:06:03;;;;;;;;;;;7.60;99.90;;;;;;4995186;28;20053;-61
2023/04/03 05:08:28;;;;;;;;;;;7.50;99.90;;;;;;4993756;28;19987;-65
2023/04/03 05:10:54;;;;;;;;;;;7.40;99.90;;;;;;4995562;28;19979;-63
2023/04/03 05:13:20;;;;;;;;;;;7.30;99.90;;;;;;4994859;28;19994;-64
2023/04/03 05:15:46;;;;;;;;;;;7.30;99.90;;;;;;4994572;28;19982;-64
2023/04/03 05:18:11;;;;;;;;;;;7.40;99.90;;;;;;4993511;28;19978;-65
2023/04/03 05:20:37;;;;;;;;;;;7.40;99.90;;;;;;4993456;28;19982;-63
2023/04/03 05:23:02;;;;;;;;;;;7.30;99.90;;;;;;4994343;28;20069;-64
2023/04/03 05:25:28;;;;;;;;;;;7.10;99.90;;;;;;4995090;28;20002;-62
2023/04/03 05:27:53;;;;;;;;;;;7.10;99.90;;;;;;4995022;28;19986;-62
2023/04/03 05:30:19;;;;;;;;;;;7.10;99.90;;;;;;4995661;28;20356;-63
2023/04/03 05:32:45;;;;;;;;;;;7.10;99.90;;;;;;4994414;28;19982;-63
2023/04/03 05:35:10;;;;;;;;;;;7.10;99.90;;;;;;4994205;28;19989;-64
2023/04/03 05:37:36;;;;;;;;;;;7.30;99.90;;;;;;4992844;28;20028;-64
2023/04/03 05:40:02;;;;;;;;;;;7.40;99.90;;;;;;4993174;28;20425;-64
2023/04/03 05:42:28;;;;;;;;;;;7.40;99.90;;;;;;4990712;28;20417;-63
2023/04/03 05:44:53;;;;;;;;;;;7.50;99.90;;;;;;4991662;28;20029;-63
2023/04/03 05:47:19;;;;;;;;;;;7.50;99.90;;;;;;4991893;28;20001;-62
2023/04/03 05:49:45;;;;;;;;;;;7.50;99.90;;;;;;4993494;28;20006;-63
2023/04/03 05:52:20;;;;;;;;;;;7.50;99.90;;;;;;4993218;28;19983;-62
2023/04/03 05:54:47;;;;;;;;;;;7.50;99.90;;;;;;4993477;28;19978;-65
2023/04/03 05:57:14;;;;;;;;;;;7.60;99.90;;;;;;4994316;28;19983;-63
2023/04/03 05:59:39;;;;;;;;;;;7.50;99.90;;;;;;4994733;28;19982;-65
2023/04/03 06:02:05;;;;;;;;;;;7.40;99.90;;;;;;4994461;28;20429;-65
2023/04/03 06:04:30;;;;;;;;;;;7.50;99.90;;;;;;4991757;28;20109;-63
2023/04/03 06:06:57;;;;;;;;;;;7.60;99.90;;;;;;4991945;28;20011;-63
2023/04/03 06:09:24;;;;;;;;;;;7.50;99.90;;;;;;4990600;28;20026;-65
2023/04/03 06:11:51;;;;;;;;;;;7.30;99.90;;;;;;4989794;28;19986;-62
2023/04/03 06:14:16;;;;;;;;;;;7.30;99.90;;;;;;4994180;28;19989;-64
2023/04/03 06:16:43;;;;;;;;;;;7.30;99.90;;;;;;4994196;28;19994;-65
2023/04/03 06:19:09;;;;;;;;;;;7.40;99.90;;;;;;4993286;28;20375;-63
2023/04/03 06:21:35;;;;;;;;;;;7.50;99.90;;;;;;4993313;28;20408;-66
2023/04/03 06:24:01;;;;;;;;;;;7.60;99.90;;;;;;4994530;28;19983;-65
2023/04/03 06:26:28;;;;;;;;;;;7.70;99.90;;;;;;4994602;28;20434;-66
2023/04/03 06:28:54;;;;;;;;;;;7.70;99.90;;;;;;4991956;28;20337;-67
2023/04/03 06:31:20;;;;;;;;;;;7.70;99.90;;;;;;4992848;28;20024;-66
2023/04/03 06:33:45;;;;;;;;;;;7.70;99.90;;;;;;4993645;28;20030;-68
2023/04/03 06:36:12;;;;;;;;;;;7.60;99.90;;;;;;4988122;28;19983;-67
2023/04/03 06:38:37;;;;;;;;;;;7.40;99.90;;;;;;4983735;28;19991;-64
2023/04/03 06:41:03;;;;;;;;;;;7.50;99.90;;;;;;4982465;28;19989;-72
2023/04/03 06:43:29;;;;;;;;;;;7.60;99.90;;;;;;4991394;28;20009;-64
2023/04/03 06:45:54;;;;;;;;;;;7.80;99.90;;;;;;4992122;28;20003;-65
2023/04/03 06:48:23;;;;;;;;;;;7.80;99.90;;;;;;4990525;28;20089;-65
2023/04/03 06:50:49;;;;;;;;;;;7.80;99.90;;;;;;4981855;28;19982;-66
2023/04/03 06:53:15;;;;;;;;;;;7.80;99.90;;;;;;4981259;28;20005;-63
2023/04/03 06:55:43;;;;;;;;;;;7.90;99.90;;;;;;4983990;28;19990;-65
2023/04/03 06:58:10;;;;;;;;;;;8.00;99.90;;;;;;4981572;28;20061;-67
2023/04/03 07:00:38;;;;;;;;;;;8.00;99.90;;;;;;4981027;28;19987;-64
2023/04/03 07:03:03;;;;;;;;;;;8.00;99.90;;;;;;4983253;28;20078;-64
2023/04/03 07:05:35;;;;;;;;;;;8.00;99.90;;;;;;4980373;28;20240;-69
2023/04/03 07:08:01;;;;;;;;;;;8.00;99.90;;;;;;4982547;28;19986;-70
2023/04/03 07:10:35;;;;;;;;;;;8.00;99.90;;;;;;4989891;28;20044;-68
2023/04/03 07:13:02;;;;;;;;;;;8.00;99.90;;;;;;4988394;28;19986;-64
2023/04/03 07:15:35;;;;;;;;;;;8.00;99.90;;;;;;4985338;28;20002;-66
2023/04/03 07:18:00;;;;;;;;;;;8.10;99.90;;;;;;4982732;28;20089;-65
2023/04/03 07:20:26;;;;;;;;;;;8.20;99.90;;;;;;4980763;28;20436;-62
2023/04/03 07:22:51;;;;;;;;;;;8.20;99.90;;;;;;4988076;28;20353;-65
2023/04/03 07:25:28;;;;;;;;;;;8.10;99.90;;;;;;4984825;28;20006;-68
2023/04/03 07:27:57;;;;;;;;;;;8.10;99.90;;;;;;4989662;28;20041;-64
2023/04/03 07:30:34;;;;;;;;;;;8.10;99.90;;;;;;4988443;28;20065;-67
2023/04/03 07:33:01;;;;;;;;;;;8.20;99.90;;;;;;4991292;28;20088;-60
2023/04/03 07:35:42;;;;;;;;;;;8.10;99.90;;;;;;4992371;28;20449;-63
2023/04/03 07:38:08;;;;;;;;;;;7.80;99.90;;;;;;4987814;28;20435;-62
2023/04/03 07:40:46;;;;;;;;;;;7.70;99.90;;;;;;4987589;28;19983;-66
2023/04/03 07:43:12;;;;;;;;;;;7.80;99.90;;;;;;4984878;28;19983;-64
2023/04/03 07:45:45;;;;;;;;;;;7.80;99.90;;;;;;4985723;28;20457;-65
2023/04/03 07:48:11;;;;;;;;;;;7.90;99.90;;;;;;4990841;28;19982;-66
2023/04/03 07:50:53;;;;;;;;;;;7.90;99.90;;;;;;4986599;28;20054;-64
2023/04/03 07:53:19;;;;;;;;;;;8.00;99.90;;;;;;4987420;28;20034;-62
2023/04/03 07:55:57;;;;;;;;;;;7.80;99.90;;;;;;4989780;28;20068;-63
2023/04/03 07:58:23;;;;;;;;;;;7.70;99.90;;;;;;4989705;28;19982;-62
2023/04/03 08:00:48;;;;;;;;;;;7.80;99.90;;;;;;4988464;28;19983;-63
2023/04/03 08:03:17;;;;;;;;;;;7.80;99.90;;;;;;4991099;28;19990;-62
2023/04/03 08:05:48;;;;;;;;;;;7.80;99.90;;;;;;4984857;28;20018;-63
2023/04/03 08:08:18;;;;;;;;;;;7.90;99.90;;;;;;4989836;28;20424;-61
2023/04/03 08:11:21;;;;;;;;;;;7.90;99.90;;;;;;4982669;28;20397;-62
2023/04/03 08:13:53;;;;;;;;;;;8.10;99.90;;;;;;4986754;28;20384;-63
2023/04/03 08:16:27;;;;;;;;;;;8.20;99.90;;;;;;4989854;28;19994;-62
2023/04/03 08:18:53;;;;;;;;;;;8.10;99.90;;;;;;4981079;28;20069;-63
2023/04/03 08:21:19;;;;;;;;;;;8.20;99.90;;;;;;4980786;28;19987;-63
2023/04/03 08:23:47;;;;;;;;;;;8.00;99.90;;;;;;4985463;28;20081;-61
2023/04/03 08:26:14;;;;;;;;;;;7.90;99.90;;;;;;4981761;28;20021;-64
2023/04/03 08:28:40;;;;;;;;;;;7.90;99.90;;;;;;4987819;28;20621;-64
2023/04/03 08:31:07;;;;;;;;;;;7.90;99.90;;;;;;4985828;28;19991;-63
2023/04/03 08:33:33;;;;;;;;;;;7.90;99.90;;;;;;4986746;28;19982;-62
2023/04/03 08:36:00;;;;;;;;;;;8.00;99.90;;;;;;4998102;28;19986;-63
2023/04/03 08:38:27;;;;;;;;;;;8.10;99.90;;;;;;4984194;28;20037;-63
2023/04/03 08:41:15;;;;;;;;;;;8.10;99.90;;;;;;4986455;28;20006;-63
2023/04/03 08:43:44;;;;;;;;;;;8.00;99.90;;;;;;4991796;28;19982;-64
2023/04/03 08:46:13;;;;;;;;;;;8.00;99.90;;;;;;4990808;28;20003;-63
2023/04/03 08:48:40;;;;;;;;;;;8.00;99.90;;;;;;4990469;28;20302;-62
2023/04/03 08:51:15;;;;;;;;;;;8.10;99.90;;;;;;4990835;28;20010;-62
2023/04/03 08:53:43;;;;;;;;;;;8.30;99.90;;;;;;4990835;28;20083;-63
2023/04/03 08:56:10;;;;;;;;;;;8.40;99.90;;;;;;4989244;28;19983;-64
2023/04/03 08:58:44;;;;;;;;;;;8.40;99.90;;;;;;4990388;28;20097;-63
2023/04/03 09:01:19;;;;;;;;;;;8.30;99.90;;;;;;4991626;28;20013;-62
2023/04/03 09:03:45;;;;;;;;;;;8.30;99.90;;;;;;4991727;28;20033;-62
2023/04/03 09:06:13;;;;;;;;;;;8.30;99.90;;;;;;4990714;28;20011;-63
2023/04/03 09:08:46;;;;;;;;;;;8.30;99.90;;;;;;4976943;28;20114;-63
2023/04/03 09:11:18;;;;;;;;;;;8.30;99.90;;;;;;4973770;28;19986;-62
2023/04/03 09:13:47;;;;;;;;;;;8.40;99.90;;;;;;4981812;28;19987;-64
2023/04/03 09:16:30;;;;;;;;;;;8.20;99.90;;;;;;4993127;28;20044;-64
2023/04/03 09:19:02;;;;;;;;;;;8.20;99.90;;;;;;4987975;28;19994;-65
2023/04/03 09:21:38;;;;;;;;;;;8.00;99.90;;;;;;4974458;28;19979;-66
2023/04/03 09:24:06;;;;;;;;;;;8.10;99.90;;;;;;4978456;28;19991;-65
2023/04/03 09:26:41;;;;;;;;;;;8.10;99.90;;;;;;4981619;28;20002;-65
2023/04/03 09:29:07;;;;;;;;;;;8.00;99.90;;;;;;4981810;28;19987;-65
2023/04/03 09:31:38;;;;;;;;;;;8.10;99.90;;;;;;4981436;28;19983;-63
2023/04/03 09:34:06;;;;;;;;;;;8.20;99.90;;;;;;4992433;28;20062;-63
2023/04/03 09:36:40;;;;;;;;;;;8.30;99.90;;;;;;4991353;28;19991;-62
2023/04/03 09:39:08;;;;;;;;;;;8.50;99.90;;;;;;4984936;28;20441;-67
2023/04/03 09:41:34;;;;;;;;;;;8.60;99.90;;;;;;4984322;28;20349;-60
2023/04/03 09:43:59;;;;;;;;;;;8.70;99.90;;;;;;4986940;28;20220;-62
2023/04/03 09:46:25;;;;;;;;;;;8.90;99.90;;;;;;4985194;28;20014;-64
2023/04/03 09:48:58;;;;;;;;;;;8.90;99.90;;;;;;4977543;28;20101;-62
2023/04/03 09:51:27;;;;;;;;;;;9.00;99.90;;;;;;4990364;28;20132;-65
2023/04/03 09:53:53;;;;;;;;;;;9.00;99.90;;;;;;4975122;28;20020;-64
2023/04/03 09:56:26;;;;;;;;;;;9.00;99.90;;;;;;4978036;28;20447;-64
2023/04/03 09:59:07;;;;;;;;;;;8.80;99.90;;;;;;4985200;28;19983;-63
2023/04/03 10:01:33;;;;;;;;;;;8.70;99.90;;;;;;4992620;28;20009;-63
2023/04/03 10:04:07;;;;;;;;;;;8.50;99.90;;;;;;4980729;28;20428;-61
2023/04/03 10:06:40;;;;;;;;;;;8.60;99.90;;;;;;4990873;28;20011;-63
2023/04/03 10:09:15;;;;;;;;;;;8.70;99.90;;;;;;4989488;28;20040;-64
2023/04/03 10:11:57;;;;;;;;;;;8.70;99.90;;;;;;4987160;28;19986;-62
2023/04/03 10:14:22;;;;;;;;;;;8.70;99.90;;;;;;4983556;28;19993;-69
2023/04/03 10:16:57;;;;;;;;;;;8.70;99.90;;;;;;4980895;28;19982;-64
2023/04/03 10:19:26;;;;;;;;;;;8.70;99.90;;;;;;4985308;28;20049;-65
2023/04/03 10:21:54;;;;;;;;;;;8.70;99.90;;;;;;4974618;28;20002;-62
2023/04/03 10:24:31;;;;;;;;;;;8.70;99.90;;;;;;4984141;28;19986;-69
2023/04/03 10:27:02;;;;;;;;;;;8.80;99.90;;;;;;4992779;28;20006;-66
2023/04/03 10:29:28;;;;;;;;;;;8.80;99.90;;;;;;4989118;28;19987;-63
2023/04/03 10:32:12;;;;;;;;;;;8.80;99.90;;;;;;4987330;28;20009;-64
2023/04/03 10:34:43;;;;;;;;;;;8.80;99.90;;;;;;4986626;28;20452;-62
2023/04/03 10:37:09;;;;;;;;;;;8.80;99.90;;;;;;4993645;28;19982;-62
2023/04/03 10:39:35;;;;;;;;;;;8.80;99.90;;;;;;4993735;28;19978;-62
2023/04/03 10:42:10;;;;;;;;;;;8.70;99.90;;;;;;4997634;28;19983;-64
2023/04/03 10:44:38;;;;;;;;;;;8.80;99.90;;;;;;4993270;28;19985;-64
2023/04/03 10:47:04;;;;;;;;;;;8.60;99.90;;;;;;4989874;28;20117;-63
2023/04/03 10:49:51;;;;;;;;;;;8.50;99.90;;;;;;4986981;28;20065;-64
2023/04/03 10:52:16;;;;;;;;;;;8.40;99.90;;;;;;4989624;28;19990;-63
2023/04/03 10:55:05;;;;;;;;;;;8.60;99.90;;;;;;4993127;28;20033;-68
2023/04/03 10:57:31;;;;;;;;;;;8.70;99.90;;;;;;4987141;28;19986;-63
2023/04/03 10:59:59;;;;;;;;;;;8.70;99.90;;;;;;4981818;28;19987;-62
2023/04/03 11:02:32;;;;;;;;;;;8.80;99.90;;;;;;4991593;28;19987;-65
2023/04/03 11:05:03;;;;;;;;;;;8.90;99.90;;;;;;4989810;28;20093;-63
2023/04/03 11:07:32;;;;;;;;;;;8.80;99.90;;;;;;4996641;28;19997;-64
2023/04/03 11:10:03;;;;;;;;;;;8.90;99.90;;;;;;4996074;28;19983;-66
2023/04/03 11:12:46;;;;;;;;;;;8.80;99.90;;;;;;4992626;28;20038;-64
2023/04/03 11:15:16;;;;;;;;;;;8.60;99.90;;;;;;4992474;28;19982;-62
2023/04/03 11:17:50;;;;;;;;;;;8.50;99.90;;;;;;4992017;28;20077;-64
2023/04/03 11:20:27;;;;;;;;;;;8.60;99.90;;;;;;4991155;28;20003;-65
2023/04/03 11:23:16;;;;;;;;;;;8.50;99.90;;;;;;4992633;28;19993;-71
2023/04/03 11:25:42;;;;;;;;;;;8.30;99.90;;;;;;4983537;28;20002;-62
2023/04/03 11:28:13;;;;;;;;;;;8.20;99.90;;;;;;4983840;28;20315;-63
2023/04/03 11:30:38;;;;;;;;;;;8.00;99.90;;;;;;4992381;28;20025;-65
2023/04/03 11:33:22;;;;;;;;;;;8.20;99.90;;;;;;4995571;28;20025;-63
2023/04/03 11:35:50;;;;;;;;;;;8.30;99.90;;;;;;4995513;28;19983;-63
2023/04/03 11:38:26;;;;;;;;;;;8.40;99.90;;;;;;4996425;28;20029;-66
2023/04/03 11:40:53;;;;;;;;;;;8.40;99.90;;;;;;4994578;28;19986;-64
2023/04/03 11:43:30;;;;;;;;;;;8.60;99.90;;;;;;4994636;28;20030;-64
2023/04/03 11:46:03;;;;;;;;;;;8.60;99.90;;;;;;4994125;28;20041;-64
2023/04/03 11:48:30;;;;;;;;;;;8.50;99.90;;;;;;4994091;28;20077;-62
2023/04/03 11:50:56;;;;;;;;;;;8.50;99.90;;;;;;4994231;28;20041;-64
2023/04/03 11:53:35;;;;;;;;;;;8.40;99.90;;;;;;4995095;28;20388;-62
2023/04/03 11:56:33;;;;;;;;;;;8.40;99.90;;;;;;4995010;28;20015;-63
2023/04/03 11:59:04;;;;;;;;;;;8.30;99.90;;;;;;4961702;28;19990;-62
2023/04/03 12:01:50;;;;;;;;;;;8.40;99.90;;;;;;4994558;28;19986;-63
2023/04/03 12:04:18;;;;;;;;;;;8.40;99.90;;;;;;4995756;28;20069;-62
2023/04/03 12:06:47;;;;;;;;;;;8.50;99.90;;;;;;4994789;28;20017;-63
2023/04/03 12:09:27;;;;;;;;;;;8.50;99.90;;;;;;4994707;28;19982;-63
2023/04/03 12:11:53;;;;;;;;;;;8.60;99.90;;;;;;4988512;28;20345;-62
2023/04/03 12:14:22;;;;;;;;;;;8.60;99.90;;;;;;4976860;28;19979;-62
2023/04/03 12:16:48;;;;;;;;;;;8.60;99.90;;;;;;4977050;28;19983;-64
2023/04/03 12:19:13;;;;;;;;;;;8.60;99.90;;;;;;4976952;28;19995;-62
2023/04/03 12:21:56;;;;;;;;;;;8.70;99.90;;;;;;4974197;28;20070;-63
2023/04/03 12:24:39;;;;;;;;;;;8.70;99.90;;;;;;4975570;28;20117;-64
2023/04/03 12:30:18;;;;;;;;;;;8.50;99.90;;;;;;4977034;28;20013;-63
2023/04/03 12:33:03;;;;;;;;;;;8.60;99.90;;;;;;4973627;28;19983;-62
2023/04/03 12:35:33;;;;;;;;;;;8.60;99.90;;;;;;4974458;28;20234;-60
2023/04/03 12:41:02;;;;;;;;;;;8.60;99.90;;;;;;4975624;28;19986;-62
2023/04/03 12:43:38;;;;;;;;;;;8.50;99.90;;;;;;4975902;28;20085;-62
2023/04/03 12:46:06;;;;;;;;;;;8.50;99.90;;;;;;4974558;28;20476;-62
2023/04/03 12:48:46;;;;;;;;;;;8.50;99.90;;;;;;4975004;28;19986;-62
2023/04/03 12:51:35;;;;;;;;;;;8.60;99.90;;;;;;4976217;28;19979;-62
2023/04/03 12:54:12;;;;;;;;;;;8.60;99.90;;;;;;4969507;28;19990;-62
2023/04/03 12:56:38;;;;;;;;;;;8.60;99.90;;;;;;4974610;28;20085;-60
2023/04/03 12:59:19;;;;;;;;;;;8.60;99.90;;;;;;4974801;28;20070;-60
2023/04/03 13:04:48;;;;;;;;;;;8.60;99.90;;;;;;4974086;28;20066;-60
2023/04/03 13:07:28;;;;;;;;;;;8.60;99.90;;;;;;4975135;28;20042;-60
2023/04/03 13:10:17;;;;;;;;;;;8.50;99.90;;;;;;4975810;28;19989;-61
2023/04/03 13:12:46;;;;;;;;;;;8.60;99.90;;;;;;4970690;28;19983;-61
2023/04/03 13:18:25;;;;;;;;;;;8.70;99.90;;;;;;4976121;28;20006;-61
2023/04/03 13:20:51;;;;;;;;;;;8.70;99.90;;;;;;4976018;28;19986;-61
2023/04/03 13:23:20;;;;;;;;;;;8.70;99.90;;;;;;4976068;28;19983;-62
2023/04/03 13:25:47;;;;;;;;;;;8.80;99.90;;;;;;4976253;28;20007;-60
2023/04/03 13:28:19;;;;;;;;;;;8.80;99.90;;;;;;4975961;28;19990;-61
2023/04/03 13:30:55;;;;;;;;;;;8.90;99.90;;;;;;4976019;28;20353;-61
2023/04/03 13:33:22;;;;;;;;;;;9.00;99.90;;;;;;4975797;28;19983;-60
2023/04/03 13:35:54;;;;;;;;;;;9.00;99.90;;;;;;4975804;28;20015;-60
2023/04/03 13:38:20;;;;;;;;;;;9.00;99.90;;;;;;4976096;28;20437;-60
2023/04/03 13:40:53;;;;;;;;;;;8.90;99.90;;;;;;4976027;28;20018;-60
2023/04/03 13:46:28;;;;;;;;;;;8.60;99.90;;;;;;4975877;28;20205;-60
2023/04/03 13:48:55;;;;;;;;;;;8.60;99.90;;;;;;4975533;28;19990;-60
2023/04/03 13:51:22;;;;;;;;;;;8.60;99.90;;;;;;4975425;28;19990;-60
2023/04/03 13:53:54;;;;;;;;;;;8.60;99.90;;;;;;4975516;28;19980;-61
2023/04/03 13:56:25;;;;;;;;;;;8.70;99.90;;;;;;4975445;28;19983;-61
2023/04/03 13:59:16;;;;;;;;;;;8.80;99.90;;;;;;4975435;28;19983;-60
2023/04/03 14:04:44;;;;;;;;;;;9.10;99.90;;;;;;4975076;28;20070;-60
2023/04/03 14:07:11;;;;;;;;;;;9.10;99.90;;;;;;4975225;28;20366;-60
2023/04/03 14:09:36;;;;;;;;;;;9.00;99.90;;;;;;4975369;28;20033;-59
2023/04/03 14:15:12;;;;;;;;;;;9.00;99.90;;;;;;4975164;28;19986;-60
2023/04/03 14:17:37;;;;;;;;;;;9.00;99.90;;;;;;4975166;28;19979;-60
2023/04/03 14:20:03;;;;;;;;;;;9.00;99.90;;;;;;4973828;28;20449;-61
2023/04/03 14:25:32;;;;;;;;;;;9.00;99.90;;;;;;4975300;28;20010;-61
2023/04/03 14:27:59;;;;;;;;;;;9.00;99.90;;;;;;4974973;28;19983;-60
2023/04/03 14:30:30;;;;;;;;;;;9.00;99.90;;;;;;4975345;28;20389;-62
2023/04/03 14:32:55;;;;;;;;;;;8.90;99.90;;;;;;4975021;28;20026;-60
2023/04/03 14:35:21;;;;;;;;;;;8.90;99.90;;;;;;4973593;28;19986;-61
2023/04/03 14:40:50;;;;;;;;;;;8.90;99.90;;;;;;4975245;28;20026;-63
2023/04/03 14:43:17;;;;;;;;;;;8.80;99.90;;;;;;4974915;28;19987;-62
2023/04/03 14:45:43;;;;;;;;;;;8.80;99.90;;;;;;4974880;28;20003;-61
2023/04/03 14:48:22;;;;;;;;;;;8.90;99.90;;;;;;4974926;28;19984;-62
2023/04/03 14:50:49;;;;;;;;;;;8.90;99.90;;;;;;4974749;28;19983;-60
2023/04/03 14:53:15;;;;;;;;;;;8.90;99.90;;;;;;4975083;28;20413;-61
2023/04/03 14:55:47;;;;;;;;;;;8.90;99.90;;;;;;4974916;28;20022;-62
2023/04/03 14:58:17;;;;;;;;;;;8.90;99.90;;;;;;4975059;28;19983;-62
2023/04/03 15:00:43;;;;;;;;;;;9.00;99.90;;;;;;4974748;28;19979;-61
2023/04/03 15:06:13;;;;;;;;;;;9.00;99.90;;;;;;4965420;28;20057;-61
2023/04/03 15:08:40;;;;;;;;;;;8.90;99.90;;;;;;4974782;28;19987;-61